AirNav   Pilot Hours Calculator
 
 1059 users online  

KHAF Half Moon Bay Airport
Half Moon Bay, California, USA

GOING TO HALF MOON BAY?


FAA INFORMATION EFFECTIVE 26 JANUARY 2023

Location

FAA Identifier: HAF
Lat/Long: 37-30-48.4000N 122-30-04.2000W
37-30.806667N 122-30.070000W
37.5134444,-122.5011667
(estimated)
Elevation: 66.3 ft. / 20.2 m (surveyed)
Variation: 15E (1995)
From city: 5 miles NW of HALF MOON BAY, CA
Time zone: UTC -8 (UTC -7 during Daylight Saving Time)
Zip code: 94038

Airport Operations

Airport use: Open to the public
Activation date: 03/1943
Control tower: no
ARTCC: OAKLAND CENTER
FSS: OAKLAND FLIGHT SERVICE STATION
NOTAMs facility: OAK (NOTAM-D service available)
Attendance: 0830-1630
Pattern altitude: 999.3 ft. MSL
Wind indicator: lighted
Segmented circle: yes
Lights: ACTVT MIRL RY 12/30, REIL RY 30, PAPI RYS 12 AND 30 - 122.8.
Beacon: white-green (lighted land airport)
Operates sunset to sunrise.

Airport Communications

CTAF/UNICOM: 122.8
WX AWOS-3: 127.275 (650-728-5649)
NORCAL APPROACH: 135.1
NORCAL DEPARTURE: 135.1
WX ASOS at SFO (9 nm NE): PHONE 650-827-8593
WX AWOS-3P at SQL (12 nm E): 125.9 (650-593-0613)
WX AWOS-AV at 18CN (16 nm N): 119.925 (415-514-4209)
WX ASOS at OAK (18 nm NE): PHONE 510-214-1776

Nearby radio navigation aids

VOR radial/distance  VOR name  Freq  Var
SFOr207/8.8SAN FRANCISCO VOR/DME115.8017E
OSIr288/12.7WOODSIDE VOR/DME113.9017E
OAKr209/18.3OAKLAND VOR/DME116.8017E
SAUr160/20.5SAUSALITO VOR/DME116.2017E
SJCr271/27.8SAN JOSE VOR/DME114.1016E
PYEr136/38.2POINT REYES VOR/DME113.7017E
CCRr197/38.5CONCORD VOR/DME117.0017E

Airport Services

Fuel available: 100LL
100LL:FUEL AVBL 24 HRS SELF SERVICE.
Parking: tiedowns
Airframe service: NONE
Powerplant service: NONE
Bottled oxygen: NONE
Bulk oxygen: NONE

Runway Information

Runway 12/30

Dimensions: 5000 x 150 ft. / 1524 x 46 m
Surface: asphalt/concrete, in fair condition
Weight bearing capacity: 
Single wheel: 30.0
Double wheel: 200.0
Double tandem: 360.0
Runway edge lights: medium intensity
RUNWAY 12  RUNWAY 30
Latitude: 37-31.107027N37-30.505213N
Longitude: 122-30.422895W122-29.716655W
Elevation: 66.3 ft.32.5 ft.
Traffic pattern: leftright
Runway heading: 122 magnetic, 137 true302 magnetic, 317 true
Displaced threshold: 752 ft.762 ft.
Markings: nonprecision, in good conditionnonprecision, in good condition
Visual slope indicator: 2-light PAPI on left (3.00 degrees glide path)2-light PAPI on left (3.00 degrees glide path)
Runway end identifier lights: noyes
Touchdown point: yes, no lightsyes, no lights
Obstructions: 70 ft. trees, 1390 ft. from runway, 270 ft. right of centerline, 17:1 slope to clear
APCH RATIO TO DSPLCD THR 50:1.
70 ft. trees, 2478 ft. from runway, 180 ft. right of centerline, 32:1 slope to clear
APCH RATIO TO DSPLCD THR 50:1.

Airport Ownership and Management from official FAA records

Ownership: Publicly-owned
Owner: SAN MATEO COUNTY
555 COUNTY CENTER, 5TH FLOOR
REDWOOD CITY, CA 94063-1665
Phone 650-573-3700
DIRECTOR OF PUBLIC WORKS: JAMES C. PORTER
Manager: GRETCHEN KELLY
620 AIRPORT DRIVE
SAN CARLOS, CA 94070
Phone 650-573-3700
MANAGERS OFFICE AIRPORT PHONE 650-573-3701.

Airport Operational Statistics

Aircraft based on the field: 13
Single engine airplanes: 12
Multi engine airplanes: 1
    
Aircraft operations: avg 144/day *
50% transient general aviation
50% local general aviation
<1% air taxi
* for 12-month period ending 15 January 2020

Additional Remarks

FLD CONDS-RWY, TWY & APRON GOOD.
AVOID FLYING DIRECTLY OVER THE PILLAR POINT AIR FORCE STATION.
ARPT NOISE SENSITIVE AREAS NW THRU NE.
TWYS, APRONS AND TIEDOWNS: 12,500 LBS MAXIMUM.
FOR CD CTC NORCAL APCH AT 916-361-0519.
UNEXPECTED TURBULENT CONDS MAY BE ENCTRD WHILE ON FNA TO RWY 12.

Instrument Procedures

NOTE: All procedures below are presented as PDF files. If you need a reader for these files, you should download the free Adobe Reader.

NOT FOR NAVIGATION. Please procure official charts for flight.
FAA instrument procedures published for use from 26 January 2023 at 0901Z to 23 February 2023 at 0900z.

 
IAPs - Instrument Approach Procedures
RNAV (GPS) RWY 12   download
RNAV (GPS) RWY 30   download
NOTE: Special Take-Off Minimums/Departure Procedures apply   download (188KB)

Other nearby airports with instrument procedures:

KSFO - San Francisco International Airport (9 nm NE)
KSQL - San Carlos Airport (12 nm E)
KOAK - Metro Oakland International Airport (18 nm NE)
KPAO - Palo Alto Airport (19 nm E)
KHWD - Hayward Executive Airport (20 nm NE)
 
Loc | Ops | Rwys | IFR | FBO | Links
Com | Nav | Svcs | Stats | Notes
Area around KHAF (Half Moon Bay Airport)
 
Road maps at: MapQuest Bing Google
 
Aerial photo
WARNING: Photo may not be current or correct
Aerial photo of KHAF (Half Moon Bay Airport)
Photo by David Newcomer
from 2,500' looking south.

Do you have a better or more recent aerial photo of Half Moon Bay Airport that you would like to share? If so, please send us your photo.

 
Sectional chart

 
Airport distance calculator
Flying to Half Moon Bay Airport? Find the distance to fly.

From to KHAF

Sunrise and sunset
Times for 04-Feb-2023
 Local
(UTC-8)
 Zulu
(UTC)
Morning civil twilight06:4414:44
Sunrise07:1215:12
Sunset17:3601:36
Evening civil twilight18:0402:04

Current date and time
Zulu (UTC)  04-Feb-2023 23:32:10
Local (UTC-8)  04-Feb-2023 15:32:10
 
METAR
KHAF 042315Z AUTO 17020G28KT 6SM BR OVC011 14/13 A2998 RMK AO2
KSFO 
9nm NE 
042311Z 13014G23KT 10SM FEW004 BKN008 OVC013 13/13 A2997 RMK AO2 RAE05 P0001 T01330128
KSQL 
12nm E 
042247Z 10014KT 2SM BR BKN018 OVC022 14/14 A3000
KOAK 
18nm NE 
042253Z 14015KT 3SM -RA BR BKN028 OVC033 13/12 A3001 RMK AO2 SLP163 P0005 T01330122
KPAO 
19nm E 
042247Z 14012KT 3SM BKN020 14/12 A3001 RA
TAF
KSFO 
9nm NE 
042100Z 0421/0524 15010KT 2SM -SHRA BKN020 FM042300 17014KT 4SM BR VCSH SCT015 BKN025 TEMPO 0423/0502 2SM -SHRA FM050200 18017G28KT 5SM -RA SCT015 OVC025 WS010/22040KT FM050800 25016G26KT 6SM BR VCSH BKN025 FM051200 26014G22KT P6SM -SHRA SCT025 BKN040 FM052200 29020G27KT P6SM -SHRA SCT025 BKN050
KOAK 
18nm NE 
042131Z 0422/0524 14008KT 2SM -SHRA FEW006 BKN025 FM042300 15012KT 4SM BR VCSH SCT015 BKN025 TEMPO 0423/0502 2SM -SHRA FM050200 17016G26KT 5SM -RA BR SCT015 OVC020 WS015/22040KT FM050800 24014G24KT 6SM BR VCSH BKN025 FM051200 25014G22KT P6SM -SHRA SCT025 BKN040 FM052200 29018G24KT P6SM -SHRA SCT025 BKN050
NOTAMs
Click for the latest NOTAMs
NOTAMs are issued by the DoD/FAA and will open in a separate window not controlled by AirNav.

 

 
 

FBO, Fuel Providers, and Aircraft Ground Support

  
 Business Name 
 
 Contact 
 
 Services / Description 
 
Fuel Prices
 
Comments
  
County of San Mateo (FBO) 650-573-3701
no information available

If you are affiliated with County of San Mateo (FBO) and would like to show here your services, contact info, web link, logo, and more, click here
100LL
SS $5.73 
 Updated 31-Jan-2023
 
   write
SS=Self service
Update Fuel Prices
 

Would you like to see your business listed on this page?

 If your business provides an interesting product or service to pilots, flight crews, aircraft, or users of the Half Moon Bay Airport, you should consider listing it here.  To start the listing process, click on the button below
 
Add a business
 

Other Pages about Half Moon Bay Airport

publicworks.smcgov.org/half-moon-bay-airport-0
AWOS display
 
Update a link
 
Copyright © AirNav, LLC. All rights reserved. Privacy Policy  Contact